Terminal Aerodrome Forecast
Issued by NWS

Home | Current Version | Previous Version | Text Only | Print | Product List | Glossary On
Versions: 1 2 3 4 5 6 7 8 9 10 11 12 13 14 15 16
000
FTUS45 KBOI 181120
TAFTWF
TAF
KTWF 181120Z 1812/1912 28025G35KT P6SM -SHRA SCT012 OVC030
      TEMPO 1812/1815 1SM SHRASN OVC012
     FM181500 26017G25KT P6SM VCSH SCT020 BKN040
     FM181800 27020G30KT P6SM VCSH BKN035
      TEMPO 1821/1901 3SM -SHSN OVC020
     FM190100 23015KT P6SM VCSH BKN035=

USA.gov is the U.S. government's official web portal to all federal, state and local government web resources and services.